sensor_id;sensor_type;location;lat;lon;timestamp;pressure;altitude;pressure_sealevel;temperature;humidity
76260;BME280;65076;52.362;6.588;2023-02-15T00:00:08;102953.84;;;5.90;68.41
76260;BME280;65076;52.362;6.588;2023-02-15T00:02:37;102963.59;;;5.84;67.67
76260;BME280;65076;52.362;6.588;2023-02-15T00:05:06;102958.19;;;5.78;67.83
76260;BME280;65076;52.362;6.588;2023-02-15T00:07:34;102959.97;;;5.76;68.00
76260;BME280;65076;52.362;6.588;2023-02-15T00:10:05;102948.34;;;5.78;67.32
76260;BME280;65076;52.362;6.588;2023-02-15T00:12:34;102953.41;;;5.28;68.41
76260;BME280;65076;52.362;6.588;2023-02-15T00:15:02;102952.69;;;5.57;67.99
76260;BME280;65076;52.362;6.588;2023-02-15T00:17:30;102945.59;;;5.63;67.44
76260;BME280;65076;52.362;6.588;2023-02-15T00:19:57;102949.09;;;5.48;68.60
76260;BME280;65076;52.362;6.588;2023-02-15T00:22:25;102953.66;;;5.66;68.15
76260;BME280;65076;52.362;6.588;2023-02-15T00:24:53;102953.69;;;5.72;67.68
76260;BME280;65076;52.362;6.588;2023-02-15T00:27:23;102954.44;;;5.50;67.22
76260;BME280;65076;52.362;6.588;2023-02-15T00:29:51;102955.19;;;5.26;69.49
76260;BME280;65076;52.362;6.588;2023-02-15T00:32:18;102952.44;;;5.20;68.58
76260;BME280;65076;52.362;6.588;2023-02-15T00:34:46;102951.63;;;5.27;68.62
76260;BME280;65076;52.362;6.588;2023-02-15T00:37:14;102950.75;;;5.31;68.46
76260;BME280;65076;52.362;6.588;2023-02-15T00:39:42;102949.06;;;5.44;68.48
76260;BME280;65076;52.362;6.588;2023-02-15T00:42:10;102941.81;;;5.34;68.17
76260;BME280;65076;52.362;6.588;2023-02-15T00:44:39;102952.50;;;5.29;68.96
76260;BME280;65076;52.362;6.588;2023-02-15T00:47:06;102951.72;;;5.42;70.19
76260;BME280;65076;52.362;6.588;2023-02-15T00:49:34;102943.63;;;5.33;70.05
76260;BME280;65076;52.362;6.588;2023-02-15T00:52:02;102948.13;;;5.42;68.75
76260;BME280;65076;52.362;6.588;2023-02-15T00:54:30;102937.34;;;5.36;68.04
76260;BME280;65076;52.362;6.588;2023-02-15T00:56:58;102927.50;;;5.36;68.85
76260;BME280;65076;52.362;6.588;2023-02-15T00:59:26;102935.63;;;5.42;68.89
76260;BME280;65076;52.362;6.588;2023-02-15T01:01:55;102926.59;;;5.33;68.13
76260;BME280;65076;52.362;6.588;2023-02-15T01:04:23;102925.69;;;5.31;69.14
76260;BME280;65076;52.362;6.588;2023-02-15T01:06:58;102918.41;;;5.11;69.48
76260;BME280;65076;52.362;6.588;2023-02-15T01:09:25;102922.69;;;4.90;70.50
76260;BME280;65076;52.362;6.588;2023-02-15T01:11:53;102916.72;;;5.26;69.89
76260;BME280;65076;52.362;6.588;2023-02-15T01:14:21;102911.31;;;5.21;68.71
76260;BME280;65076;52.362;6.588;2023-02-15T01:16:49;102911.97;;;4.93;69.53
76260;BME280;65076;52.362;6.588;2023-02-15T01:19:18;102917.53;;;5.17;70.19
76260;BME280;65076;52.362;6.588;2023-02-15T01:21:46;102913.94;;;5.12;69.25
76260;BME280;65076;52.362;6.588;2023-02-15T01:24:14;102913.84;;;5.03;69.08
76260;BME280;65076;52.362;6.588;2023-02-15T01:26:42;102916.53;;;5.04;69.02
76260;BME280;65076;52.362;6.588;2023-02-15T01:29:10;102911.25;;;5.15;68.51
76260;BME280;65076;52.362;6.588;2023-02-15T01:31:38;102905.88;;;5.12;67.91
76260;BME280;65076;52.362;6.588;2023-02-15T01:34:06;102906.72;;;5.05;68.63
76260;BME280;65076;52.362;6.588;2023-02-15T01:36:35;102906.78;;;5.13;68.35
76260;BME280;65076;52.362;6.588;2023-02-15T01:39:03;102903.91;;;4.90;69.09
76260;BME280;65076;52.362;6.588;2023-02-15T01:41:31;102895.06;;;5.03;68.89
76260;BME280;65076;52.362;6.588;2023-02-15T01:44:00;102890.59;;;5.00;68.83
76260;BME280;65076;52.362;6.588;2023-02-15T01:46:33;102892.22;;;4.80;68.59
76260;BME280;65076;52.362;6.588;2023-02-15T01:49:10;102894.97;;;4.86;68.58
76260;BME280;65076;52.362;6.588;2023-02-15T01:51:46;102909.22;;;4.84;69.20
76260;BME280;65076;52.362;6.588;2023-02-15T01:54:21;102902.81;;;4.66;69.66
76260;BME280;65076;52.362;6.588;2023-02-15T01:56:54;102893.13;;;4.81;69.99
76260;BME280;65076;52.362;6.588;2023-02-15T01:59:28;102895.63;;;4.62;69.98
76260;BME280;65076;52.362;6.588;2023-02-15T02:01:59;102885.91;;;4.77;71.31
76260;BME280;65076;52.362;6.588;2023-02-15T02:04:31;102891.63;;;4.21;71.90
76260;BME280;65076;52.362;6.588;2023-02-15T02:07:08;102887.97;;;4.11;74.04
76260;BME280;65076;52.362;6.588;2023-02-15T02:09:38;102876.78;;;4.56;73.12
76260;BME280;65076;52.362;6.588;2023-02-15T02:12:08;102872.31;;;4.52;72.75
76260;BME280;65076;52.362;6.588;2023-02-15T02:14:37;102876.56;;;4.29;72.66
76260;BME280;65076;52.362;6.588;2023-02-15T02:17:12;102879.53;;;4.62;70.89
76260;BME280;65076;52.362;6.588;2023-02-15T02:20:24;102862.69;;;4.79;71.60
76260;BME280;65076;52.362;6.588;2023-02-15T02:23:15;102855.59;;;4.85;72.90
76260;BME280;65076;52.362;6.588;2023-02-15T02:33:15;102844.81;;;4.78;74.33
76260;BME280;65076;52.362;6.588;2023-02-15T02:36:01;102843.72;;;4.53;74.20
76260;BME280;65076;52.362;6.588;2023-02-15T02:38:44;102848.50;;;4.93;74.02
76260;BME280;65076;52.362;6.588;2023-02-15T02:41:24;102850.09;;;4.65;73.51
76260;BME280;65076;52.362;6.588;2023-02-15T02:44:04;102845.50;;;4.55;75.29
76260;BME280;65076;52.362;6.588;2023-02-15T02:46:46;102841.25;;;4.79;74.25
76260;BME280;65076;52.362;6.588;2023-02-15T02:49:30;102850.00;;;4.56;75.35
76260;BME280;65076;52.362;6.588;2023-02-15T02:52:00;102850.38;;;4.04;74.43
76260;BME280;65076;52.362;6.588;2023-02-15T02:54:30;102846.41;;;4.54;73.17
76260;BME280;65076;52.362;6.588;2023-02-15T02:57:04;102840.16;;;4.55;73.44
76260;BME280;65076;52.362;6.588;2023-02-15T02:59:38;102836.69;;;4.65;72.30
76260;BME280;65076;52.362;6.588;2023-02-15T03:02:16;102829.00;;;4.10;72.79
76260;BME280;65076;52.362;6.588;2023-02-15T03:04:51;102825.69;;;4.34;74.28
76260;BME280;65076;52.362;6.588;2023-02-15T03:07:30;102825.91;;;4.59;73.68
76260;BME280;65076;52.362;6.588;2023-02-15T03:10:02;102819.69;;;4.66;73.20
76260;BME280;65076;52.362;6.588;2023-02-15T03:12:34;102823.28;;;4.65;72.73
76260;BME280;65076;52.362;6.588;2023-02-15T03:15:08;102817.53;;;4.23;74.52
76260;BME280;65076;52.362;6.588;2023-02-15T03:17:43;102811.31;;;4.25;76.32
76260;BME280;65076;52.362;6.588;2023-02-15T03:20:19;102814.28;;;4.62;75.08
76260;BME280;65076;52.362;6.588;2023-02-15T03:22:55;102815.19;;;4.61;73.94
76260;BME280;65076;52.362;6.588;2023-02-15T03:25:31;102817.03;;;4.68;74.24
76260;BME280;65076;52.362;6.588;2023-02-15T03:28:03;102813.53;;;4.78;73.48
76260;BME280;65076;52.362;6.588;2023-02-15T03:30:35;102807.81;;;4.33;73.92
76260;BME280;65076;52.362;6.588;2023-02-15T03:33:06;102809.66;;;3.55;77.46
76260;BME280;65076;52.362;6.588;2023-02-15T03:35:48;102822.84;;;4.20;77.99
76260;BME280;65076;52.362;6.588;2023-02-15T03:38:22;102816.88;;;3.61;78.06
76260;BME280;65076;52.362;6.588;2023-02-15T03:40:56;102818.91;;;3.84;77.20
76260;BME280;65076;52.362;6.588;2023-02-15T03:43:46;102807.84;;;4.34;75.44
76260;BME280;65076;52.362;6.588;2023-02-15T03:46:22;102806.16;;;4.48;75.56
76260;BME280;65076;52.362;6.588;2023-02-15T03:48:58;102802.59;;;4.52;74.75
76260;BME280;65076;52.362;6.588;2023-02-15T03:51:35;102797.09;;;4.36;75.67
76260;BME280;65076;52.362;6.588;2023-02-15T03:54:08;102790.88;;;4.38;75.45
76260;BME280;65076;52.362;6.588;2023-02-15T03:56:39;102797.84;;;4.18;75.45
76260;BME280;65076;52.362;6.588;2023-02-15T03:59:28;102788.88;;;4.13;76.62
76260;BME280;65076;52.362;6.588;2023-02-15T04:02:21;102788.06;;;4.23;76.23
76260;BME280;65076;52.362;6.588;2023-02-15T04:04:54;102784.50;;;4.25;77.27
76260;BME280;65076;52.362;6.588;2023-02-15T04:07:24;102791.97;;;3.69;77.11
76260;BME280;65076;52.362;6.588;2023-02-15T04:09:51;102794.88;;;3.89;78.33
76260;BME280;65076;52.362;6.588;2023-02-15T04:12:37;102789.47;;;3.84;77.79
76260;BME280;65076;52.362;6.588;2023-02-15T04:15:05;102788.66;;;3.92;78.59
76260;BME280;65076;52.362;6.588;2023-02-15T04:18:05;102792.09;;;3.80;79.01
76260;BME280;65076;52.362;6.588;2023-02-15T04:20:33;102781.63;;;4.03;79.10
76260;BME280;65076;52.362;6.588;2023-02-15T04:23:20;102778.97;;;4.06;78.53
76260;BME280;65076;52.362;6.588;2023-02-15T04:26:05;102782.72;;;4.26;78.40
76260;BME280;65076;52.362;6.588;2023-02-15T04:28:33;102786.13;;;4.07;77.09
76260;BME280;65076;52.362;6.588;2023-02-15T04:31:01;102780.06;;;4.26;77.03
76260;BME280;65076;52.362;6.588;2023-02-15T04:33:28;102785.56;;;4.43;76.70
76260;BME280;65076;52.362;6.588;2023-02-15T04:35:56;102782.00;;;4.47;76.52
76260;BME280;65076;52.362;6.588;2023-02-15T04:38:26;102783.78;;;4.46;75.91
76260;BME280;65076;52.362;6.588;2023-02-15T04:40:54;102787.47;;;4.57;76.21
76260;BME280;65076;52.362;6.588;2023-02-15T04:43:21;102789.31;;;4.67;75.83
76260;BME280;65076;52.362;6.588;2023-02-15T04:45:49;102782.00;;;4.45;75.40
76260;BME280;65076;52.362;6.588;2023-02-15T04:48:18;102782.91;;;4.46;76.14
76260;BME280;65076;52.362;6.588;2023-02-15T04:50:45;102788.59;;;3.86;77.38
76260;BME280;65076;52.362;6.588;2023-02-15T04:53:13;102787.16;;;3.38;79.63
76260;BME280;65076;52.362;6.588;2023-02-15T04:55:44;102777.16;;;4.02;79.08
76260;BME280;65076;52.362;6.588;2023-02-15T04:58:12;102777.88;;;3.84;78.56
76260;BME280;65076;52.362;6.588;2023-02-15T05:00:40;102768.16;;;3.92;79.20
76260;BME280;65076;52.362;6.588;2023-02-15T05:03:08;102761.25;;;4.18;77.89
76260;BME280;65076;52.362;6.588;2023-02-15T05:05:36;102764.19;;;3.55;78.54
76260;BME280;65076;52.362;6.588;2023-02-15T05:08:04;102767.94;;;3.74;79.82
76260;BME280;65076;52.362;6.588;2023-02-15T05:10:32;102762.97;;;4.15;78.09
76260;BME280;65076;52.362;6.588;2023-02-15T05:13:01;102766.59;;;4.18;77.47
76260;BME280;65076;52.362;6.588;2023-02-15T05:15:29;102761.75;;;3.79;78.51
76260;BME280;65076;52.362;6.588;2023-02-15T05:17:56;102764.31;;;3.69;78.60
76260;BME280;65076;52.362;6.588;2023-02-15T05:20:24;102753.13;;;4.08;78.53
76260;BME280;65076;52.362;6.588;2023-02-15T05:22:53;102748.56;;;3.98;77.90
76260;BME280;65076;52.362;6.588;2023-02-15T05:25:21;102747.00;;;4.22;77.47
76260;BME280;65076;52.362;6.588;2023-02-15T05:28:10;102745.16;;;4.20;76.45
76260;BME280;65076;52.362;6.588;2023-02-15T05:30:47;102741.41;;;4.00;77.06
76260;BME280;65076;52.362;6.588;2023-02-15T05:33:17;102744.25;;;4.16;76.58
76260;BME280;65076;52.362;6.588;2023-02-15T05:35:45;102748.81;;;4.26;76.86
76260;BME280;65076;52.362;6.588;2023-02-15T05:38:13;102748.72;;;4.16;77.27
76260;BME280;65076;52.362;6.588;2023-02-15T05:40:40;102754.00;;;4.10;75.99
76260;BME280;65076;52.362;6.588;2023-02-15T05:43:10;102749.78;;;4.36;76.37
76260;BME280;65076;52.362;6.588;2023-02-15T05:45:37;102747.91;;;4.26;76.33
76260;BME280;65076;52.362;6.588;2023-02-15T05:48:05;102740.53;;;3.98;77.70
76260;BME280;65076;52.362;6.588;2023-02-15T05:50:33;102738.91;;;4.18;77.15
76260;BME280;65076;52.362;6.588;2023-02-15T05:53:01;102742.47;;;4.17;76.81
76260;BME280;65076;52.362;6.588;2023-02-15T05:55:29;102732.81;;;4.34;76.68
76260;BME280;65076;52.362;6.588;2023-02-15T05:57:56;102735.38;;;4.25;76.13
76260;BME280;65076;52.362;6.588;2023-02-15T06:00:26;102742.91;;;3.72;77.86
76260;BME280;65076;52.362;6.588;2023-02-15T06:02:53;102738.88;;;4.12;78.20
76260;BME280;65076;52.362;6.588;2023-02-15T06:05:21;102737.75;;;3.90;78.66
76260;BME280;65076;52.362;6.588;2023-02-15T06:07:49;102736.88;;;3.93;77.85
76260;BME280;65076;52.362;6.588;2023-02-15T06:10:17;102748.50;;;3.92;78.46
76260;BME280;65076;52.362;6.588;2023-02-15T06:12:45;102736.84;;;3.88;77.74
76260;BME280;65076;52.362;6.588;2023-02-15T06:15:13;102740.41;;;3.86;78.00
76260;BME280;65076;52.362;6.588;2023-02-15T06:17:43;102735.13;;;3.92;78.31
76260;BME280;65076;52.362;6.588;2023-02-15T06:20:11;102736.94;;;3.97;78.10
76260;BME280;65076;52.362;6.588;2023-02-15T06:22:40;102743.13;;;3.90;77.97
76260;BME280;65076;52.362;6.588;2023-02-15T06:25:08;102737.16;;;4.18;77.40
76260;BME280;65076;52.362;6.588;2023-02-15T06:27:37;102747.09;;;4.33;76.37
76260;BME280;65076;52.362;6.588;2023-02-15T06:30:09;102749.75;;;4.33;76.14
76260;BME280;65076;52.362;6.588;2023-02-15T06:32:38;102734.66;;;4.44;76.23
76260;BME280;65076;52.362;6.588;2023-02-15T06:35:08;102734.41;;;4.12;75.47
76260;BME280;65076;52.362;6.588;2023-02-15T06:37:36;102738.72;;;3.98;76.66
76260;BME280;65076;52.362;6.588;2023-02-15T06:40:04;102738.78;;;4.03;77.74
76260;BME280;65076;52.362;6.588;2023-02-15T06:42:34;102739.91;;;4.32;76.50
76260;BME280;65076;52.362;6.588;2023-02-15T06:45:02;102739.06;;;4.36;75.92
76260;BME280;65076;52.362;6.588;2023-02-15T06:47:32;102740.56;;;4.02;76.02
76260;BME280;65076;52.362;6.588;2023-02-15T06:50:00;102737.06;;;4.14;76.54
76260;BME280;65076;52.362;6.588;2023-02-15T06:52:30;102731.88;;;4.29;76.62
76260;BME280;65076;52.362;6.588;2023-02-15T06:54:57;102737.13;;;4.20;76.79
76260;BME280;65076;52.362;6.588;2023-02-15T06:57:25;102742.59;;;4.35;76.18
76260;BME280;65076;52.362;6.588;2023-02-15T06:59:53;102732.69;;;4.22;76.76
76260;BME280;65076;52.362;6.588;2023-02-15T07:02:21;102734.69;;;4.49;75.59
76260;BME280;65076;52.362;6.588;2023-02-15T07:04:49;102733.69;;;4.36;75.25
76260;BME280;65076;52.362;6.588;2023-02-15T07:07:17;102732.00;;;4.50;75.35
76260;BME280;65076;52.362;6.588;2023-02-15T07:09:46;102729.44;;;4.64;75.11
76260;BME280;65076;52.362;6.588;2023-02-15T07:12:14;102731.88;;;4.35;75.23
76260;BME280;65076;52.362;6.588;2023-02-15T07:15:00;102731.88;;;4.29;76.11
76260;BME280;65076;52.362;6.588;2023-02-15T07:17:30;102724.97;;;4.64;75.92
76260;BME280;65076;52.362;6.588;2023-02-15T07:20:02;102719.41;;;4.40;75.01
76260;BME280;65076;52.362;6.588;2023-02-15T07:22:30;102724.16;;;4.76;75.23
76260;BME280;65076;52.362;6.588;2023-02-15T07:25:01;102718.53;;;4.38;75.13
76260;BME280;65076;52.362;6.588;2023-02-15T07:27:30;102720.63;;;4.88;75.13
76260;BME280;65076;52.362;6.588;2023-02-15T07:29:58;102714.31;;;4.78;74.21
76260;BME280;65076;52.362;6.588;2023-02-15T07:32:28;102712.72;;;5.15;74.24
76260;BME280;65076;52.362;6.588;2023-02-15T07:34:57;102715.41;;;5.12;73.79
76260;BME280;65076;52.362;6.588;2023-02-15T07:37:25;102716.25;;;5.05;73.23
76260;BME280;65076;52.362;6.588;2023-02-15T07:39:54;102719.13;;;5.53;73.11
76260;BME280;65076;52.362;6.588;2023-02-15T07:42:23;102711.03;;;5.47;71.97
76260;BME280;65076;52.362;6.588;2023-02-15T07:44:51;102707.47;;;5.56;71.85
76260;BME280;65076;52.362;6.588;2023-02-15T07:47:19;102701.25;;;5.83;71.01
76260;BME280;65076;52.362;6.588;2023-02-15T07:49:47;102697.72;;;6.04;71.18
76260;BME280;65076;52.362;6.588;2023-02-15T07:52:15;102696.78;;;5.85;71.07
76260;BME280;65076;52.362;6.588;2023-02-15T07:54:43;102692.34;;;6.05;69.95
76260;BME280;65076;52.362;6.588;2023-02-15T07:57:11;102688.63;;;6.84;67.37
76260;BME280;65076;52.362;6.588;2023-02-15T07:59:40;102673.97;;;7.53;66.36
76260;BME280;65076;52.362;6.588;2023-02-15T08:02:09;102676.81;;;7.26;65.32
76260;BME280;65076;52.362;6.588;2023-02-15T08:04:38;102667.63;;;7.55;64.94
76260;BME280;65076;52.362;6.588;2023-02-15T08:07:06;102667.41;;;7.89;64.63
76260;BME280;65076;52.362;6.588;2023-02-15T08:09:34;102662.44;;;8.44;63.85
76260;BME280;65076;52.362;6.588;2023-02-15T08:12:02;102656.31;;;8.25;63.26
76260;BME280;65076;52.362;6.588;2023-02-15T08:14:30;102646.47;;;9.02;60.24
76260;BME280;65076;52.362;6.588;2023-02-15T08:17:00;102660.16;;;8.88;60.30
76260;BME280;65076;52.362;6.588;2023-02-15T08:19:30;102655.25;;;9.21;60.22
76260;BME280;65076;52.362;6.588;2023-02-15T08:22:02;102650.25;;;9.53;57.97
76260;BME280;65076;52.362;6.588;2023-02-15T08:24:33;102652.00;;;8.91;59.90
76260;BME280;65076;52.362;6.588;2023-02-15T08:27:04;102647.38;;;9.65;58.08
76260;BME280;65076;52.362;6.588;2023-02-15T08:29:34;102659.91;;;9.69;57.06
76260;BME280;65076;52.362;6.588;2023-02-15T08:32:07;102657.19;;;9.71;55.87
76260;BME280;65076;52.362;6.588;2023-02-15T08:34:38;102651.78;;;10.26;56.73
76260;BME280;65076;52.362;6.588;2023-02-15T08:37:08;102656.41;;;11.12;53.18
76260;BME280;65076;52.362;6.588;2023-02-15T08:39:36;102654.72;;;11.06;54.43
76260;BME280;65076;52.362;6.588;2023-02-15T08:42:04;102651.09;;;11.07;53.00
76260;BME280;65076;52.362;6.588;2023-02-15T08:44:32;102645.94;;;11.75;52.07
76260;BME280;65076;52.362;6.588;2023-02-15T08:46:59;102646.19;;;10.83;53.69
76260;BME280;65076;52.362;6.588;2023-02-15T08:49:31;102643.94;;;11.44;52.64
76260;BME280;65076;52.362;6.588;2023-02-15T08:51:59;102643.06;;;11.42;52.31
76260;BME280;65076;52.362;6.588;2023-02-15T08:54:27;102643.38;;;11.30;51.86
76260;BME280;65076;52.362;6.588;2023-02-15T08:56:55;102645.91;;;10.96;54.06
76260;BME280;65076;52.362;6.588;2023-02-15T08:59:23;102636.03;;;11.74;51.79
76260;BME280;65076;52.362;6.588;2023-02-15T09:01:53;102631.44;;;11.37;53.14
76260;BME280;65076;52.362;6.588;2023-02-15T09:04:22;102636.63;;;11.86;52.75
76260;BME280;65076;52.362;6.588;2023-02-15T09:06:51;102624.81;;;12.24;50.37
76260;BME280;65076;52.362;6.588;2023-02-15T09:09:19;102635.78;;;11.83;50.99
76260;BME280;65076;52.362;6.588;2023-02-15T09:11:50;102623.72;;;11.58;52.44
76260;BME280;65076;52.362;6.588;2023-02-15T09:14:25;102621.94;;;11.18;53.01
76260;BME280;65076;52.362;6.588;2023-02-15T09:16:54;102613.59;;;11.66;53.22
76260;BME280;65076;52.362;6.588;2023-02-15T09:19:23;102621.25;;;12.21;51.64
76260;BME280;65076;52.362;6.588;2023-02-15T09:21:52;102614.50;;;12.36;51.23
76260;BME280;65076;52.362;6.588;2023-02-15T09:24:20;102612.34;;;13.41;48.75
76260;BME280;65076;52.362;6.588;2023-02-15T09:26:49;102609.59;;;12.82;48.98
76260;BME280;65076;52.362;6.588;2023-02-15T09:29:17;102613.75;;;13.25;49.65
76260;BME280;65076;52.362;6.588;2023-02-15T09:31:47;102609.53;;;13.44;46.96
76260;BME280;65076;52.362;6.588;2023-02-15T09:34:18;102618.47;;;13.75;45.97
76260;BME280;65076;52.362;6.588;2023-02-15T09:36:48;102612.34;;;13.69;46.53
76260;BME280;65076;52.362;6.588;2023-02-15T09:39:20;102610.81;;;14.65;45.87
76260;BME280;65076;52.362;6.588;2023-02-15T09:42:20;102604.16;;;14.72;45.23
76260;BME280;65076;52.362;6.588;2023-02-15T09:45:16;102619.22;;;13.80;47.09
76260;BME280;65076;52.362;6.588;2023-02-15T09:48:30;102609.72;;;15.39;44.14
76260;BME280;65076;52.362;6.588;2023-02-15T09:51:19;102613.25;;;14.48;45.13
76260;BME280;65076;52.362;6.588;2023-02-15T09:54:24;102607.16;;;14.40;45.84
76260;BME280;65076;52.362;6.588;2023-02-15T09:57:10;102606.84;;;15.20;45.23
76260;BME280;65076;52.362;6.588;2023-02-15T09:59:53;102601.59;;;15.16;44.87
76260;BME280;65076;52.362;6.588;2023-02-15T10:02:42;102602.06;;;14.80;44.71
76260;BME280;65076;52.362;6.588;2023-02-15T10:05:32;102606.03;;;14.21;45.96
76260;BME280;65076;52.362;6.588;2023-02-15T10:08:33;102600.22;;;14.56;46.12
76260;BME280;65076;52.362;6.588;2023-02-15T10:11:23;102596.59;;;14.56;46.67
76260;BME280;65076;52.362;6.588;2023-02-15T10:14:19;102602.88;;;14.33;45.47
76260;BME280;65076;52.362;6.588;2023-02-15T10:17:16;102595.72;;;14.29;46.75
76260;BME280;65076;52.362;6.588;2023-02-15T10:20:01;102603.63;;;13.57;48.25
76260;BME280;65076;52.362;6.588;2023-02-15T10:22:45;102597.38;;;13.82;47.90
76260;BME280;65076;52.362;6.588;2023-02-15T10:25:37;102595.63;;;13.81;47.56
76260;BME280;65076;52.362;6.588;2023-02-15T10:28:17;102598.72;;;13.41;48.95
76260;BME280;65076;52.362;6.588;2023-02-15T10:30:48;102590.34;;;13.48;48.59
76260;BME280;65076;52.362;6.588;2023-02-15T10:33:36;102591.13;;;12.62;51.10
76260;BME280;65076;52.362;6.588;2023-02-15T10:36:15;102586.44;;;13.83;48.56
76260;BME280;65076;52.362;6.588;2023-02-15T10:38:58;102598.97;;;12.73;50.52
76260;BME280;65076;52.362;6.588;2023-02-15T10:41:41;102593.97;;;13.49;49.98
76260;BME280;65076;52.362;6.588;2023-02-15T10:44:30;102594.38;;;13.91;49.38
76260;BME280;65076;52.362;6.588;2023-02-15T10:47:23;102597.16;;;14.14;48.01
76260;BME280;65076;52.362;6.588;2023-02-15T10:50:22;102597.13;;;13.04;51.54
76260;BME280;65076;52.362;6.588;2023-02-15T10:53:08;102590.59;;;13.69;48.77
76260;BME280;65076;52.362;6.588;2023-02-15T10:55:51;102590.59;;;13.41;50.06
76260;BME280;65076;52.362;6.588;2023-02-15T10:58:35;102589.69;;;13.94;49.10
76260;BME280;65076;52.362;6.588;2023-02-15T11:01:18;102585.28;;;13.92;49.21
76260;BME280;65076;52.362;6.588;2023-02-15T11:04:17;102570.97;;;14.61;48.19
76260;BME280;65076;52.362;6.588;2023-02-15T11:07:05;102582.25;;;14.26;47.54
76260;BME280;65076;52.362;6.588;2023-02-15T11:09:42;102573.53;;;14.66;46.89
76260;BME280;65076;52.362;6.588;2023-02-15T11:12:17;102566.53;;;14.34;47.68
76260;BME280;65076;52.362;6.588;2023-02-15T11:14:52;102567.31;;;14.62;47.19
76260;BME280;65076;52.362;6.588;2023-02-15T11:17:35;102573.78;;;14.60;47.23
76260;BME280;65076;52.362;6.588;2023-02-15T11:20:16;102559.47;;;15.01;45.51
76260;BME280;65076;52.362;6.588;2023-02-15T11:22:52;102562.31;;;15.43;45.07
76260;BME280;65076;52.362;6.588;2023-02-15T11:25:25;102568.44;;;15.26;45.20
76260;BME280;65076;52.362;6.588;2023-02-15T11:27:58;102567.50;;;15.93;44.09
76260;BME280;65076;52.362;6.588;2023-02-15T11:30:40;102551.91;;;16.17;43.05
76260;BME280;65076;52.362;6.588;2023-02-15T11:33:18;102567.31;;;16.58;43.06
76260;BME280;65076;52.362;6.588;2023-02-15T11:35:53;102550.06;;;16.37;42.24
76260;BME280;65076;52.362;6.588;2023-02-15T11:38:30;102545.56;;;16.96;41.54
76260;BME280;65076;52.362;6.588;2023-02-15T11:41:02;102538.03;;;17.01;41.44
76260;BME280;65076;52.362;6.588;2023-02-15T11:43:36;102535.91;;;16.87;41.46
76260;BME280;65076;52.362;6.588;2023-02-15T11:46:11;102526.88;;;17.22;40.33
76260;BME280;65076;52.362;6.588;2023-02-15T11:48:42;102527.81;;;17.95;39.53
76260;BME280;65076;52.362;6.588;2023-02-15T11:51:13;102530.88;;;17.89;38.50
76260;BME280;65076;52.362;6.588;2023-02-15T11:53:44;102527.09;;;17.74;39.00
76260;BME280;65076;52.362;6.588;2023-02-15T11:56:14;102526.97;;;17.02;40.17
76260;BME280;65076;52.362;6.588;2023-02-15T11:58:45;102519.31;;;16.52;42.00
76260;BME280;65076;52.362;6.588;2023-02-15T12:01:22;102517.59;;;16.50;42.30
76260;BME280;65076;52.362;6.588;2023-02-15T12:03:59;102524.91;;;16.88;41.18
76260;BME280;65076;52.362;6.588;2023-02-15T12:06:34;102510.38;;;16.29;42.38
76260;BME280;65076;52.362;6.588;2023-02-15T12:09:12;102512.63;;;16.19;42.95
76260;BME280;65076;52.362;6.588;2023-02-15T12:11:49;102512.94;;;16.72;42.17
76260;BME280;65076;52.362;6.588;2023-02-15T12:14:17;102505.78;;;16.88;41.59
76260;BME280;65076;52.362;6.588;2023-02-15T12:16:46;102507.41;;;17.11;41.47
76260;BME280;65076;52.362;6.588;2023-02-15T12:19:28;102501.56;;;16.42;41.62
76260;BME280;65076;52.362;6.588;2023-02-15T12:22:01;102500.44;;;16.85;40.93
76260;BME280;65076;52.362;6.588;2023-02-15T12:24:34;102492.53;;;16.40;41.86
76260;BME280;65076;52.362;6.588;2023-02-15T12:27:14;102502.09;;;16.89;40.68
76260;BME280;65076;52.362;6.588;2023-02-15T12:29:48;102485.84;;;17.41;40.21
76260;BME280;65076;52.362;6.588;2023-02-15T12:32:22;102488.16;;;17.13;40.68
76260;BME280;65076;52.362;6.588;2023-02-15T12:34:59;102479.44;;;17.59;39.79
76260;BME280;65076;52.362;6.588;2023-02-15T12:37:34;102477.34;;;16.53;41.65
76260;BME280;65076;52.362;6.588;2023-02-15T12:40:18;102480.25;;;17.07;41.70
76260;BME280;65076;52.362;6.588;2023-02-15T12:42:47;102478.16;;;16.94;40.77
76260;BME280;65076;52.362;6.588;2023-02-15T12:45:24;102469.56;;;17.74;39.14
76260;BME280;65076;52.362;6.588;2023-02-15T12:48:08;102466.16;;;17.33;39.51
76260;BME280;65076;52.362;6.588;2023-02-15T12:50:44;102472.22;;;17.40;38.37
76260;BME280;65076;52.362;6.588;2023-02-15T12:53:33;102467.16;;;17.32;39.67
76260;BME280;65076;52.362;6.588;2023-02-15T12:56:04;102461.50;;;17.35;39.47
76260;BME280;65076;52.362;6.588;2023-02-15T12:58:34;102462.16;;;17.40;39.80
76260;BME280;65076;52.362;6.588;2023-02-15T13:01:14;102443.78;;;17.61;39.16
76260;BME280;65076;52.362;6.588;2023-02-15T13:04:13;102449.28;;;17.06;39.41
76260;BME280;65076;52.362;6.588;2023-02-15T13:06:51;102445.06;;;17.71;38.63
76260;BME280;65076;52.362;6.588;2023-02-15T13:09:26;102439.50;;;17.19;39.79
76260;BME280;65076;52.362;6.588;2023-02-15T13:12:17;102436.06;;;17.86;39.40
76260;BME280;65076;52.362;6.588;2023-02-15T13:14:51;102430.09;;;17.61;39.77
76260;BME280;65076;52.362;6.588;2023-02-15T13:17:24;102417.81;;;18.02;38.83
76260;BME280;65076;52.362;6.588;2023-02-15T13:19:58;102415.41;;;17.96;38.30
76260;BME280;65076;52.362;6.588;2023-02-15T13:22:36;102418.44;;;18.25;37.64
76260;BME280;65076;52.362;6.588;2023-02-15T13:25:13;102411.28;;;18.55;37.42
76260;BME280;65076;52.362;6.588;2023-02-15T13:27:46;102413.88;;;17.91;38.58
76260;BME280;65076;52.362;6.588;2023-02-15T13:30:24;102408.19;;;17.61;39.87
76260;BME280;65076;52.362;6.588;2023-02-15T13:33:00;102409.28;;;18.08;38.73
76260;BME280;65076;52.362;6.588;2023-02-15T13:35:37;102421.72;;;17.81;39.09
76260;BME280;65076;52.362;6.588;2023-02-15T13:41:16;102420.28;;;17.74;39.16